createdAt,value
2022-12-29T00:02:00.132Z,0.80
2022-12-29T00:05:04.863Z,1.00
2022-12-29T00:08:08.389Z,1.02
2022-12-29T00:11:12.471Z,0.90
2022-12-29T00:14:35.197Z,0.95
2022-12-29T00:17:38.904Z,0.85
2022-12-29T00:21:00.933Z,0.90
2022-12-29T00:24:24.109Z,1.00
2022-12-29T00:27:46.200Z,0.75
2022-12-29T00:31:08.663Z,0.75
2022-12-29T00:34:32.335Z,1.00
2022-12-29T00:37:49.645Z,0.93
2022-12-29T00:41:10.454Z,1.08
2022-12-29T00:44:14.931Z,1.00
2022-12-29T00:47:21.754Z,1.92
2022-12-29T00:50:24.230Z,1.20
2022-12-29T00:53:28.411Z,1.08
2022-12-29T00:56:31.937Z,1.20
2022-12-29T00:59:37.398Z,0.90
2022-12-29T01:02:42.498Z,1.00
2022-12-29T01:05:46.193Z,0.93
2022-12-29T01:09:10.487Z,0.88
2022-12-29T01:12:14.492Z,0.93
2022-12-29T01:15:21.039Z,0.90
2022-12-29T01:18:29.469Z,1.10
2022-12-29T01:21:33.115Z,0.88
2022-12-29T01:24:37.595Z,0.82
2022-12-29T01:27:41.083Z,0.80
2022-12-29T01:30:44.459Z,0.70
2022-12-29T01:33:51.994Z,0.77
2022-12-29T01:36:58.763Z,0.90
2022-12-29T01:40:02.853Z,1.13
2022-12-29T01:43:08.029Z,0.93
2022-12-29T01:46:16.957Z,0.80
2022-12-29T01:49:25.871Z,1.00
2022-12-29T01:52:31.402Z,0.70
2022-12-29T01:55:37.008Z,0.82
2022-12-29T01:58:42.781Z,0.93
2022-12-29T02:01:46.975Z,0.85
2022-12-29T02:04:51.902Z,0.90
2022-12-29T02:07:55.871Z,0.88
2022-12-29T02:11:00.823Z,0.90
2022-12-29T02:14:04.291Z,0.98
2022-12-29T02:17:12.394Z,1.02
2022-12-29T02:20:40.698Z,0.90
2022-12-29T02:24:09.116Z,0.90
2022-12-29T02:27:26.717Z,0.70
2022-12-29T02:30:40.774Z,0.90
2022-12-29T02:33:56.368Z,0.90
2022-12-29T02:37:03.254Z,1.02
2022-12-29T02:40:11.431Z,0.90
2022-12-29T02:43:18.463Z,1.00
2022-12-29T02:46:29.222Z,0.75
2022-12-29T02:49:36.148Z,0.80
2022-12-29T02:52:42.150Z,0.60
2022-12-29T02:55:49.854Z,0.90
2022-12-29T02:58:53.462Z,0.65
2022-12-29T03:02:21.559Z,1.00
2022-12-29T03:05:36.571Z,0.68
2022-12-29T03:08:43.059Z,0.90
2022-12-29T03:12:09.593Z,0.80
2022-12-29T03:15:33.073Z,0.60
2022-12-29T03:18:42.026Z,0.68
2022-12-29T03:22:04.938Z,0.77
2022-12-29T03:25:17.818Z,0.60
2022-12-29T03:28:25.547Z,0.80
2022-12-29T03:31:29.014Z,0.70
2022-12-29T03:34:34.813Z,0.63
2022-12-29T03:37:40.397Z,1.00
2022-12-29T03:40:46.958Z,0.75
2022-12-29T03:43:51.416Z,0.73
2022-12-29T03:46:55.028Z,0.80
2022-12-29T03:50:00.044Z,1.10
2022-12-29T03:53:03.939Z,0.77
2022-12-29T03:56:08.924Z,0.57
2022-12-29T03:59:12.458Z,0.60
2022-12-29T04:02:17.656Z,0.65
2022-12-29T04:05:24.324Z,0.70
2022-12-29T04:08:30.902Z,0.60
2022-12-29T04:11:36.361Z,0.77
2022-12-29T04:14:40.870Z,0.60
2022-12-29T04:17:44.352Z,0.65
2022-12-29T04:21:01.942Z,0.80
2022-12-29T04:24:08.139Z,0.70
2022-12-29T04:27:16.390Z,0.52
2022-12-29T04:30:40.905Z,0.60
2022-12-29T04:33:54.926Z,0.98
2022-12-29T04:37:00.087Z,0.63
2022-12-29T04:40:06.464Z,0.50
2022-12-29T04:43:10.533Z,0.73
2022-12-29T04:46:32.640Z,1.40
2022-12-29T04:49:39.321Z,0.80
2022-12-29T04:53:20.027Z,0.70
2022-12-29T04:56:25.025Z,0.60
2022-12-29T04:59:28.507Z,0.80
2022-12-29T05:02:35.618Z,0.65
2022-12-29T05:05:39.622Z,0.70
2022-12-29T05:08:45.057Z,0.50
2022-12-29T05:11:48.837Z,0.55
2022-12-29T05:14:52.413Z,0.70
2022-12-29T05:17:56.640Z,0.50
2022-12-29T05:21:03.402Z,0.70
2022-12-29T05:24:09.181Z,0.50
2022-12-29T05:27:13.453Z,0.60
2022-12-29T05:30:35.477Z,0.45
2022-12-29T05:33:39.192Z,0.68
2022-12-29T05:36:42.885Z,0.40
2022-12-29T05:39:51.022Z,0.50
2022-12-29T05:42:55.144Z,0.57
2022-12-29T05:46:31.473Z,0.40
2022-12-29T05:49:43.727Z,0.57
2022-12-29T05:53:00.729Z,0.70
2022-12-29T05:56:06.127Z,0.75
2022-12-29T05:59:10.710Z,0.47
2022-12-29T06:02:17.456Z,0.60
2022-12-29T06:05:23.872Z,0.70
2022-12-29T06:08:27.762Z,0.70
2022-12-29T06:11:40.831Z,0.60
2022-12-29T06:14:46.069Z,0.50
2022-12-29T06:17:55.998Z,0.55
2022-12-29T06:21:09.353Z,0.47
2022-12-29T06:24:15.482Z,0.40
2022-12-29T06:27:22.160Z,0.50
2022-12-29T06:30:38.453Z,0.60
2022-12-29T06:33:47.123Z,0.52
2022-12-29T06:36:53.737Z,0.60
2022-12-29T06:39:57.339Z,0.60
2022-12-29T06:43:08.551Z,0.70
2022-12-29T06:46:33.748Z,0.60
2022-12-29T06:49:37.935Z,0.47
2022-12-29T06:52:51.891Z,0.40
2022-12-29T06:55:58.145Z,0.38
2022-12-29T06:59:10.349Z,0.60
2022-12-29T07:02:15.669Z,0.60
2022-12-29T07:05:20.137Z,0.65
2022-12-29T07:08:23.622Z,0.70
2022-12-29T07:11:33.244Z,0.90
2022-12-29T07:14:43.155Z,0.95
2022-12-29T07:17:47.414Z,0.88
2022-12-29T07:20:53.589Z,1.10
2022-12-29T07:24:02.775Z,1.00
2022-12-29T07:27:13.363Z,0.90
2022-12-29T07:30:18.346Z,0.80
2022-12-29T07:33:33.299Z,0.80
2022-12-29T07:36:37.815Z,0.47
2022-12-29T07:39:41.704Z,0.57
2022-12-29T07:42:45.327Z,0.47
2022-12-29T07:45:59.968Z,0.43
2022-12-29T07:49:05.635Z,0.52
2022-12-29T07:52:10.695Z,0.30
2022-12-29T07:58:43.778Z,0.30
2022-12-29T08:02:03.611Z,0.50
2022-12-29T08:05:24.054Z,0.40
2022-12-29T08:08:27.869Z,0.40
2022-12-29T08:11:32.324Z,0.43
2022-12-29T08:14:37.960Z,0.40
2022-12-29T08:18:02.782Z,0.45
2022-12-29T08:21:16.115Z,0.40
2022-12-29T08:28:08.372Z,0.30
2022-12-29T08:31:26.622Z,0.38
2022-12-29T08:34:45.409Z,0.60
2022-12-29T08:37:57.244Z,0.60
2022-12-29T08:41:12.042Z,0.73
2022-12-29T08:44:21.571Z,0.55
2022-12-29T08:47:31.870Z,0.50
2022-12-29T08:50:42.340Z,0.65
2022-12-29T08:53:57.361Z,0.55
2022-12-29T08:57:46.193Z,0.45
2022-12-29T09:00:58.563Z,0.38
2022-12-29T09:04:15.535Z,0.50
2022-12-29T09:07:28.068Z,0.40
2022-12-29T09:10:39.131Z,2.40
2022-12-29T09:13:51.748Z,1.95
2022-12-29T09:17:19.063Z,0.95
2022-12-29T09:20:29.010Z,0.75
2022-12-29T09:23:38.551Z,1.95
2022-12-29T09:26:50.624Z,1.55
2022-12-29T09:30:00.721Z,0.50
2022-12-29T09:33:10.792Z,0.57
2022-12-29T09:36:20.852Z,0.77
2022-12-29T09:39:30.733Z,0.22
2022-12-29T09:42:44.883Z,0.85
2022-12-29T09:46:00.368Z,0.68
2022-12-29T09:49:12.386Z,0.52
2022-12-29T09:52:51.811Z,0.50
2022-12-29T09:56:04.810Z,0.60
2022-12-29T09:59:21.551Z,0.63
2022-12-29T10:02:35.240Z,0.50
2022-12-29T10:05:49.721Z,0.45
2022-12-29T10:09:01.677Z,0.70
2022-12-29T10:12:24.581Z,0.68
2022-12-29T10:15:52.570Z,0.40
2022-12-29T10:19:12.111Z,0.60
2022-12-29T10:22:32.703Z,0.57
2022-12-29T10:25:47.983Z,0.55
2022-12-29T10:33:20.193Z,0.40
2022-12-29T10:36:48.457Z,0.50
2022-12-29T10:40:02.092Z,0.75
2022-12-29T10:43:21.360Z,0.60
2022-12-29T10:46:51.741Z,1.70
2022-12-29T10:50:17.887Z,0.75
2022-12-29T10:57:40.731Z,0.50
2022-12-29T11:00:45.414Z,0.80
2022-12-29T11:04:14.673Z,0.60
2022-12-29T11:07:50.353Z,0.60
2022-12-29T11:11:01.929Z,0.90
2022-12-29T11:14:17.100Z,0.60
2022-12-29T11:17:27.236Z,0.52
2022-12-29T11:20:34.860Z,0.60
2022-12-29T11:23:39.384Z,0.60
2022-12-29T11:26:47.103Z,0.77
2022-12-29T11:30:14.406Z,0.90
2022-12-29T11:43:03.803Z,0.60
2022-12-29T11:50:04.941Z,0.57
2022-12-29T11:53:35.930Z,0.43
2022-12-29T11:56:42.928Z,0.50
2022-12-29T11:59:47.354Z,0.60
2022-12-29T12:02:56.671Z,0.73
2022-12-29T12:06:10.812Z,0.60
2022-12-29T12:09:51.758Z,1.02
2022-12-29T12:13:21.000Z,0.50
2022-12-29T12:16:35.240Z,0.63
2022-12-29T12:19:44.811Z,0.60
2022-12-29T12:22:51.707Z,0.70
2022-12-29T12:26:02.396Z,0.88
2022-12-29T12:29:21.039Z,0.85
2022-12-29T12:32:35.172Z,0.57
2022-12-29T12:35:43.813Z,0.90
2022-12-29T12:38:56.666Z,0.60
2022-12-29T12:42:11.962Z,0.57
2022-12-29T12:45:33.987Z,0.80
2022-12-29T12:48:46.740Z,0.73
2022-12-29T12:51:54.658Z,0.70
2022-12-29T12:55:10.548Z,0.60
2022-12-29T12:58:24.001Z,1.00
2022-12-29T13:01:36.972Z,1.30
2022-12-29T13:04:52.541Z,0.93
2022-12-29T13:08:06.444Z,1.10
2022-12-29T13:11:24.671Z,1.40
2022-12-29T13:15:10.745Z,0.95
2022-12-29T13:18:34.115Z,1.85
2022-12-29T13:22:07.054Z,2.70
2022-12-29T13:25:36.254Z,2.22
2022-12-29T13:28:43.969Z,1.80
2022-12-29T13:36:54.693Z,0.80
2022-12-29T13:40:00.044Z,0.90
2022-12-29T13:43:04.257Z,0.90
2022-12-29T13:46:10.060Z,1.08
2022-12-29T13:49:16.867Z,1.05
2022-12-29T13:55:43.959Z,0.77
2022-12-29T13:58:57.294Z,0.77
2022-12-29T14:02:08.181Z,0.90
2022-12-29T14:09:53.712Z,0.80
2022-12-29T14:13:05.206Z,1.88
2022-12-29T14:16:27.583Z,0.68
2022-12-29T14:19:44.574Z,0.90
2022-12-29T14:23:01.620Z,0.63
2022-12-29T14:26:18.674Z,0.75
2022-12-29T14:29:41.374Z,1.35
2022-12-29T14:33:02.917Z,0.75
2022-12-29T14:36:22.705Z,0.77
2022-12-29T14:39:37.841Z,0.50
2022-12-29T14:42:42.910Z,0.68
2022-12-29T14:45:56.667Z,0.70
2022-12-29T14:49:02.440Z,0.68
2022-12-29T14:57:09.263Z,0.93
2022-12-29T15:00:22.092Z,0.70
2022-12-29T15:03:26.725Z,0.90
2022-12-29T15:06:42.745Z,0.52
2022-12-29T15:09:50.606Z,0.50
2022-12-29T15:12:55.479Z,0.47
2022-12-29T15:15:59.110Z,0.55
2022-12-29T15:19:23.790Z,0.47
2022-12-29T15:22:42.930Z,0.70
2022-12-29T15:25:50.018Z,0.43
2022-12-29T15:28:57.547Z,0.63
2022-12-29T15:32:03.249Z,0.88
2022-12-29T15:35:18.583Z,0.40
2022-12-29T15:42:42.634Z,0.90
2022-12-29T15:45:50.967Z,0.43
2022-12-29T15:48:57.004Z,0.55
2022-12-29T15:52:48.025Z,0.80
2022-12-29T15:55:58.309Z,0.73
2022-12-29T15:59:04.945Z,0.77
2022-12-29T16:02:12.874Z,0.88
2022-12-29T16:05:18.592Z,0.70
2022-12-29T16:08:29.753Z,0.77
2022-12-29T16:11:49.862Z,0.65
2022-12-29T16:15:01.755Z,0.80
2022-12-29T16:18:19.171Z,0.90
2022-12-29T16:21:55.594Z,0.77
2022-12-29T16:25:26.293Z,0.80
2022-12-29T16:28:43.812Z,1.25
2022-12-29T16:32:00.794Z,0.93
2022-12-29T16:35:17.757Z,1.40
2022-12-29T16:38:23.718Z,2.13
2022-12-29T16:41:33.779Z,1.40
2022-12-29T16:44:44.250Z,1.27
2022-12-29T16:47:50.487Z,0.90
2022-12-29T16:50:54.435Z,0.95
2022-12-29T16:53:57.998Z,1.75
2022-12-29T16:57:01.465Z,1.70
2022-12-29T17:00:08.381Z,1.50
2022-12-29T17:03:12.883Z,1.15
2022-12-29T17:06:21.918Z,1.13
2022-12-29T17:10:00.361Z,1.10
2022-12-29T17:13:11.407Z,0.90
2022-12-29T17:16:33.765Z,1.02
2022-12-29T17:19:57.016Z,1.50
2022-12-29T17:23:01.124Z,0.98
2022-12-29T17:26:04.589Z,1.05
2022-12-29T17:29:07.853Z,1.20
2022-12-29T17:32:14.551Z,0.98
2022-12-29T17:35:20.300Z,1.60
2022-12-29T17:38:31.580Z,1.20
2022-12-29T17:41:36.839Z,1.35
2022-12-29T17:44:46.024Z,1.02
2022-12-29T17:48:23.237Z,1.15
2022-12-29T17:51:29.981Z,1.30
2022-12-29T17:54:41.016Z,1.13
2022-12-29T17:57:44.443Z,1.33
2022-12-29T18:00:48.595Z,1.25
2022-12-29T18:03:59.701Z,1.40
2022-12-29T18:07:12.205Z,1.88
2022-12-29T18:10:15.650Z,1.45
2022-12-29T18:13:46.936Z,1.33
2022-12-29T18:17:13.687Z,1.00
2022-12-29T18:20:17.561Z,1.60
2022-12-29T18:23:34.962Z,1.27
2022-12-29T18:26:38.262Z,1.20
2022-12-29T18:29:41.655Z,1.63
2022-12-29T18:32:45.729Z,1.40
2022-12-29T18:35:51.095Z,1.00
2022-12-29T18:38:55.745Z,2.80
2022-12-29T18:41:59.180Z,1.48
2022-12-29T18:45:02.513Z,2.15
2022-12-29T18:48:08.859Z,1.55
2022-12-29T18:51:17.748Z,1.50
2022-12-29T18:54:27.323Z,1.27
2022-12-29T18:57:33.609Z,1.60
2022-12-29T19:00:37.037Z,1.50
2022-12-29T19:03:43.520Z,1.40
2022-12-29T19:06:46.949Z,1.45
2022-12-29T19:09:51.739Z,2.22
2022-12-29T19:12:55.096Z,1.33
2022-12-29T19:15:59.884Z,2.92
2022-12-29T19:19:09.251Z,1.60
2022-12-29T19:22:19.753Z,1.95
2022-12-29T19:25:24.610Z,1.83
2022-12-29T19:28:28.914Z,2.17
2022-12-29T19:31:32.272Z,1.65
2022-12-29T19:34:35.758Z,2.33
2022-12-29T19:37:40.405Z,1.33
2022-12-29T19:40:45.613Z,1.35
2022-12-29T19:43:50.152Z,1.85
2022-12-29T19:46:55.315Z,2.10
2022-12-29T19:49:58.975Z,1.98
2022-12-29T19:53:21.259Z,1.73
2022-12-29T19:56:25.967Z,1.42
2022-12-29T19:59:30.636Z,2.00
2022-12-29T20:02:35.301Z,1.27
2022-12-29T20:05:38.937Z,1.10
2022-12-29T20:08:42.298Z,0.98
2022-12-29T20:11:46.990Z,0.80
2022-12-29T20:14:50.338Z,1.02
2022-12-29T20:21:17.822Z,0.80
2022-12-29T20:24:21.098Z,1.00
2022-12-29T20:27:25.696Z,1.20
2022-12-29T20:30:31.976Z,0.65
2022-12-29T20:33:36.064Z,1.05
2022-12-29T20:36:41.390Z,0.70
2022-12-29T20:39:47.838Z,0.70
2022-12-29T20:42:52.621Z,0.70
2022-12-29T20:45:56.785Z,0.60
2022-12-29T20:49:00.468Z,0.52
2022-12-29T20:52:07.236Z,0.50
2022-12-29T20:55:16.813Z,0.50
2022-12-29T20:58:23.985Z,0.40
2022-12-29T21:01:28.021Z,0.45
2022-12-29T21:04:50.205Z,0.40
2022-12-29T21:08:11.376Z,0.35
2022-12-29T21:11:14.877Z,0.40
2022-12-29T21:14:19.552Z,0.45
2022-12-29T21:17:32.024Z,0.50
2022-12-29T21:20:51.744Z,0.60
2022-12-29T21:24:26.145Z,0.50
2022-12-29T21:27:42.935Z,0.57
2022-12-29T21:35:01.597Z,0.73
2022-12-29T21:38:05.107Z,0.70
2022-12-29T21:41:09.511Z,0.50
2022-12-29T21:44:30.632Z,0.57
2022-12-29T21:47:55.313Z,0.52
2022-12-29T21:51:18.155Z,0.55
2022-12-29T21:54:40.306Z,0.60
2022-12-29T21:58:14.056Z,0.70
2022-12-29T22:01:35.234Z,0.43
2022-12-29T22:04:56.164Z,0.60
2022-12-29T22:08:19.201Z,0.50
2022-12-29T22:11:39.998Z,0.65
2022-12-29T22:14:43.269Z,0.70
2022-12-29T22:17:50.882Z,0.80
2022-12-29T22:20:58.821Z,0.70
2022-12-29T22:24:15.323Z,0.75
2022-12-29T22:27:18.725Z,0.75
2022-12-29T22:30:21.970Z,0.73
2022-12-29T22:33:25.565Z,0.70
2022-12-29T22:36:29.455Z,0.77
2022-12-29T22:39:33.996Z,1.02
2022-12-29T22:42:37.501Z,0.60
2022-12-29T22:45:40.772Z,0.57
2022-12-29T22:48:44.086Z,0.60
2022-12-29T22:51:47.467Z,0.93
2022-12-29T22:54:52.254Z,1.20
2022-12-29T22:57:55.668Z,0.90
2022-12-29T23:00:58.919Z,1.00
2022-12-29T23:07:39.725Z,1.00
2022-12-29T23:10:44.395Z,0.70
2022-12-29T23:13:47.591Z,1.00
2022-12-29T23:16:51.153Z,1.08
2022-12-29T23:19:54.799Z,1.10
2022-12-29T23:22:58.276Z,1.35
2022-12-29T23:26:03.318Z,0.90
2022-12-29T23:29:07.252Z,1.33
2022-12-29T23:32:10.668Z,1.27
2022-12-29T23:35:15.114Z,1.05
2022-12-29T23:38:19.577Z,1.25
2022-12-29T23:41:24.210Z,0.90
2022-12-29T23:44:27.551Z,1.33
2022-12-29T23:47:30.843Z,0.98
2022-12-29T23:50:34.239Z,0.73
2022-12-29T23:54:30.192Z,1.15
2022-12-29T23:57:36.864Z,1.02
